createdAt,value
2023-04-15T00:00:32.863Z,0
2023-04-15T00:01:32.828Z,0
2023-04-15T00:02:33.071Z,0
2023-04-15T00:03:33.160Z,0
2023-04-15T00:04:32.959Z,0
2023-04-15T00:05:32.823Z,0
2023-04-15T00:06:32.865Z,0
2023-04-15T00:07:32.813Z,0
2023-04-15T00:08:32.843Z,0
2023-04-15T00:09:32.814Z,0
2023-04-15T00:10:32.846Z,0
2023-04-15T00:11:32.822Z,0
2023-04-15T00:12:32.839Z,0
2023-04-15T00:13:32.812Z,0
2023-04-15T00:14:32.840Z,0
2023-04-15T00:15:32.827Z,0
2023-04-15T00:16:32.835Z,0
2023-04-15T00:17:32.851Z,0
2023-04-15T00:18:32.868Z,0
2023-04-15T00:19:32.805Z,0
2023-04-15T00:20:32.802Z,0
2023-04-15T00:21:32.810Z,0
2023-04-15T00:22:32.827Z,0
2023-04-15T00:23:32.824Z,0
2023-04-15T00:24:32.833Z,0
2023-04-15T00:25:32.800Z,0
2023-04-15T00:26:32.845Z,0
2023-04-15T00:27:32.828Z,0
2023-04-15T00:28:32.810Z,0
2023-04-15T00:29:32.804Z,0
2023-04-15T00:30:32.854Z,0
2023-04-15T00:31:32.851Z,0
2023-04-15T00:32:32.826Z,0
2023-04-15T00:33:32.843Z,0
2023-04-15T00:34:32.815Z,0
2023-04-15T00:35:32.856Z,0
2023-04-15T00:36:32.786Z,0
2023-04-15T00:37:32.806Z,0
2023-04-15T00:38:32.847Z,0
2023-04-15T00:39:32.837Z,0
2023-04-15T00:40:32.819Z,0
2023-04-15T00:41:32.811Z,0
2023-04-15T00:42:32.840Z,0
2023-04-15T00:43:32.850Z,0
2023-04-15T00:44:32.824Z,0
2023-04-15T00:45:32.819Z,0
2023-04-15T00:46:32.801Z,0
2023-04-15T00:47:32.872Z,0
2023-04-15T00:48:32.806Z,0
2023-04-15T00:49:32.832Z,0
2023-04-15T00:50:32.835Z,0
2023-04-15T00:51:32.846Z,0
2023-04-15T00:52:32.805Z,0
2023-04-15T00:53:32.830Z,0
2023-04-15T00:54:32.825Z,0
2023-04-15T00:55:32.841Z,0
2023-04-15T00:56:32.805Z,0
2023-04-15T00:57:33.852Z,0
2023-04-15T00:58:32.812Z,0
2023-04-15T00:59:32.823Z,0
2023-04-15T01:00:32.871Z,0
2023-04-15T01:01:32.914Z,0
2023-04-15T01:02:33.096Z,0
2023-04-15T01:03:33.025Z,0
2023-04-15T01:04:32.871Z,0
2023-04-15T01:05:32.823Z,0
2023-04-15T01:06:32.820Z,0
2023-04-15T01:07:32.847Z,0
2023-04-15T01:08:32.818Z,0
2023-04-15T01:09:32.818Z,0
2023-04-15T01:10:32.811Z,0
2023-04-15T01:11:32.822Z,0
2023-04-15T01:12:32.785Z,0
2023-04-15T01:13:32.804Z,0
2023-04-15T01:14:32.800Z,0
2023-04-15T01:15:32.818Z,0
2023-04-15T01:16:32.970Z,0
2023-04-15T01:17:32.834Z,0
2023-04-15T01:18:32.829Z,0
2023-04-15T01:19:32.907Z,0
2023-04-15T01:20:32.807Z,0
2023-04-15T01:21:32.818Z,0
2023-04-15T01:22:32.814Z,0
2023-04-15T01:23:32.822Z,0
2023-04-15T01:24:32.837Z,0
2023-04-15T01:25:32.856Z,0
2023-04-15T01:26:32.870Z,0
2023-04-15T01:27:32.810Z,0
2023-04-15T01:28:32.853Z,0
2023-04-15T01:29:32.819Z,0
2023-04-15T01:30:32.847Z,0
2023-04-15T01:31:32.823Z,0
2023-04-15T01:32:32.829Z,0
2023-04-15T01:33:32.817Z,0
2023-04-15T01:34:35.539Z,0
2023-04-15T01:35:32.816Z,0
2023-04-15T01:36:32.813Z,0
2023-04-15T01:37:32.815Z,0
2023-04-15T01:38:32.823Z,0
2023-04-15T01:39:32.806Z,0
2023-04-15T01:40:33.019Z,0
2023-04-15T01:41:32.992Z,0
2023-04-15T01:42:32.923Z,0
2023-04-15T01:43:32.914Z,0
2023-04-15T01:44:32.966Z,0
2023-04-15T01:45:32.942Z,0
2023-04-15T01:46:32.977Z,0
2023-04-15T01:47:32.942Z,0
2023-04-15T01:48:32.986Z,0
2023-04-15T01:49:32.913Z,0
2023-04-15T01:50:32.946Z,0
2023-04-15T01:51:32.946Z,0
2023-04-15T01:52:32.965Z,0
2023-04-15T01:53:32.954Z,0
2023-04-15T01:54:32.986Z,0
2023-04-15T01:55:32.941Z,0
2023-04-15T01:56:32.912Z,0
2023-04-15T01:57:32.937Z,0
2023-04-15T01:58:32.838Z,0
2023-04-15T01:59:32.801Z,0
2023-04-15T02:00:32.868Z,0
2023-04-15T02:01:32.891Z,0
2023-04-15T02:02:32.927Z,0
2023-04-15T02:03:32.968Z,0
2023-04-15T02:04:32.841Z,0
2023-04-15T02:05:32.822Z,0
2023-04-15T02:06:32.873Z,0
2023-04-15T02:07:32.814Z,0
2023-04-15T02:08:32.798Z,0
2023-04-15T02:09:32.809Z,0
2023-04-15T02:10:32.820Z,0
2023-04-15T02:11:32.848Z,0
2023-04-15T02:12:32.839Z,0
2023-04-15T02:13:32.826Z,0
2023-04-15T02:14:32.813Z,0
2023-04-15T02:15:32.815Z,0
2023-04-15T02:16:32.862Z,0
2023-04-15T02:17:32.841Z,0
2023-04-15T02:18:32.815Z,0
2023-04-15T02:19:32.808Z,0
2023-04-15T02:20:32.828Z,0
2023-04-15T02:21:32.834Z,0
2023-04-15T02:22:32.830Z,0
2023-04-15T02:23:32.806Z,0
2023-04-15T02:24:32.749Z,0
2023-04-15T02:25:32.815Z,0
2023-04-15T02:26:32.829Z,0
2023-04-15T02:27:32.776Z,0
2023-04-15T02:28:32.811Z,0
2023-04-15T02:29:32.834Z,0
2023-04-15T02:30:32.805Z,0
2023-04-15T02:31:32.876Z,0
2023-04-15T02:32:32.848Z,0
2023-04-15T02:33:32.819Z,0
2023-04-15T02:34:32.823Z,0
2023-04-15T02:35:32.811Z,0
2023-04-15T02:36:32.811Z,0
2023-04-15T02:37:32.809Z,0
2023-04-15T02:38:32.825Z,0
2023-04-15T02:39:32.802Z,0
2023-04-15T02:40:32.850Z,0
2023-04-15T02:41:32.881Z,0
2023-04-15T02:42:32.824Z,0
2023-04-15T02:43:32.789Z,0
2023-04-15T02:44:32.825Z,0
2023-04-15T02:45:32.783Z,0
2023-04-15T02:46:32.799Z,0
2023-04-15T02:47:32.860Z,0
2023-04-15T02:48:32.891Z,0
2023-04-15T02:49:32.804Z,0
2023-04-15T02:50:32.798Z,0
2023-04-15T02:51:32.826Z,0
2023-04-15T02:52:32.822Z,0
2023-04-15T02:53:32.808Z,0
2023-04-15T02:54:32.785Z,0
2023-04-15T02:55:32.798Z,0
2023-04-15T02:56:32.808Z,0
2023-04-15T02:57:32.810Z,0
2023-04-15T02:58:32.803Z,0
2023-04-15T02:59:32.809Z,0
2023-04-15T03:00:32.870Z,0
2023-04-15T03:01:32.866Z,0
2023-04-15T03:02:32.963Z,0
2023-04-15T03:03:32.906Z,0
2023-04-15T03:04:32.812Z,0
2023-04-15T03:05:32.808Z,0
2023-04-15T03:06:32.793Z,0
2023-04-15T03:07:32.800Z,0
2023-04-15T03:08:32.839Z,0
2023-04-15T03:09:32.828Z,0
2023-04-15T03:10:32.818Z,0
2023-04-15T03:11:33.662Z,0
2023-04-15T03:12:32.958Z,0
2023-04-15T03:13:32.826Z,0
2023-04-15T03:14:32.801Z,0
2023-04-15T03:15:32.842Z,0
2023-04-15T03:16:32.853Z,0
2023-04-15T03:17:32.950Z,0
2023-04-15T03:18:32.774Z,0
2023-04-15T03:19:32.917Z,0
2023-04-15T03:20:32.865Z,0
2023-04-15T03:21:32.833Z,0
2023-04-15T03:22:32.975Z,0
2023-04-15T03:23:32.974Z,0
2023-04-15T03:24:32.790Z,0
2023-04-15T03:25:32.797Z,0
2023-04-15T03:26:32.934Z,0
2023-04-15T03:27:32.776Z,0
2023-04-15T03:28:32.838Z,0
2023-04-15T03:29:32.796Z,0
2023-04-15T03:30:32.799Z,0
2023-04-15T03:31:32.966Z,0
2023-04-15T03:32:32.827Z,0
2023-04-15T03:33:32.964Z,0
2023-04-15T03:34:32.928Z,0
2023-04-15T03:35:32.940Z,0
2023-04-15T03:36:32.982Z,0
2023-04-15T03:37:32.892Z,0
2023-04-15T03:38:32.971Z,0
2023-04-15T03:39:32.822Z,0
2023-04-15T03:40:32.928Z,0
2023-04-15T03:41:33.039Z,0
2023-04-15T03:42:32.900Z,0
2023-04-15T03:43:32.900Z,0
2023-04-15T03:44:32.877Z,0
2023-04-15T03:45:32.872Z,0
2023-04-15T03:46:32.933Z,0
2023-04-15T03:47:32.909Z,0
2023-04-15T03:48:32.853Z,0
2023-04-15T03:49:32.791Z,0
2023-04-15T03:50:32.922Z,0
2023-04-15T03:51:32.963Z,0.36
2023-04-15T03:52:32.812Z,0
2023-04-15T03:53:32.792Z,0
2023-04-15T03:54:32.793Z,0
2023-04-15T03:55:32.783Z,0
2023-04-15T03:56:32.805Z,0.36
2023-04-15T03:57:32.800Z,0
2023-04-15T03:58:32.805Z,0
2023-04-15T03:59:32.818Z,1.71
2023-04-15T04:00:32.819Z,1.71
2023-04-15T04:01:32.822Z,2.08
2023-04-15T04:02:32.952Z,1.22
2023-04-15T04:03:32.954Z,1.71
2023-04-15T04:04:32.937Z,2.57
2023-04-15T04:05:32.805Z,2.08
2023-04-15T04:06:32.793Z,2.57
2023-04-15T04:07:32.774Z,3.43
2023-04-15T04:08:32.832Z,3.43
2023-04-15T04:09:32.813Z,3.43
2023-04-15T04:10:32.818Z,3.79
2023-04-15T04:11:32.798Z,4.28
2023-04-15T04:12:32.798Z,4.77
2023-04-15T04:13:32.867Z,5.63
2023-04-15T04:14:32.773Z,6.48
2023-04-15T04:15:32.986Z,5.99
2023-04-15T04:16:32.852Z,7.34
2023-04-15T04:17:32.821Z,8.19
2023-04-15T04:18:32.831Z,9.54
2023-04-15T04:19:32.762Z,10.39
2023-04-15T04:20:32.816Z,11.62
2023-04-15T04:21:32.803Z,12.48
2023-04-15T04:22:32.880Z,15.17
2023-04-15T04:23:32.794Z,16.39
2023-04-15T04:24:32.828Z,18.6
2023-04-15T04:25:32.792Z,19.94
2023-04-15T04:26:32.803Z,19.94
2023-04-15T04:27:32.824Z,19.45
2023-04-15T04:28:32.801Z,19.08
2023-04-15T04:29:32.802Z,18.11
2023-04-15T04:30:32.788Z,16.88
2023-04-15T04:31:32.827Z,16.88
2023-04-15T04:32:32.837Z,16.02
2023-04-15T04:33:32.785Z,16.02
2023-04-15T04:34:32.805Z,16.39
2023-04-15T04:35:32.805Z,16.39
2023-04-15T04:36:32.780Z,16.88
2023-04-15T04:37:32.765Z,17.25
2023-04-15T04:38:32.781Z,17.25
2023-04-15T04:39:32.842Z,16.88
2023-04-15T04:40:32.811Z,18.11
2023-04-15T04:41:32.784Z,18.6
2023-04-15T04:42:32.781Z,19.08
2023-04-15T04:43:32.848Z,19.94
2023-04-15T04:44:32.772Z,19.94
2023-04-15T04:45:32.866Z,19.94
2023-04-15T04:46:32.789Z,20.8
2023-04-15T04:47:32.854Z,20.31
2023-04-15T04:48:32.971Z,21.16
2023-04-15T04:49:32.777Z,22.51
2023-04-15T04:50:32.789Z,24.71
2023-04-15T04:51:32.786Z,24.22
2023-04-15T04:52:32.767Z,22.87
2023-04-15T04:53:32.804Z,24.22
2023-04-15T04:54:32.805Z,25.07
2023-04-15T04:55:32.814Z,24.71
2023-04-15T04:56:32.764Z,24.22
2023-04-15T04:57:32.779Z,26.79
2023-04-15T04:58:32.787Z,28.99
2023-04-15T04:59:32.797Z,28.63
2023-04-15T05:00:32.743Z,29.85
2023-04-15T05:01:32.810Z,29.85
2023-04-15T05:02:32.954Z,30.34
2023-04-15T05:03:32.970Z,30.7
2023-04-15T05:04:32.764Z,30.7
2023-04-15T05:05:32.810Z,31.56
2023-04-15T05:06:32.831Z,31.56
2023-04-15T05:07:32.803Z,32.42
2023-04-15T05:08:32.802Z,33.76
2023-04-15T05:09:32.799Z,36.33
2023-04-15T05:10:32.805Z,41.59
2023-04-15T05:11:32.815Z,43.8
2023-04-15T05:12:32.783Z,45.51
2023-04-15T05:13:32.794Z,48.93
2023-04-15T05:14:32.790Z,52.85
2023-04-15T05:15:32.824Z,53.34
2023-04-15T05:16:32.776Z,48.07
2023-04-15T05:17:32.805Z,45.87
2023-04-15T05:18:32.786Z,42.45
2023-04-15T05:19:32.813Z,39.88
2023-04-15T05:20:32.764Z,39.02
2023-04-15T05:21:32.793Z,43.8
2023-04-15T05:22:32.790Z,47.22
2023-04-15T05:23:32.820Z,48.93
2023-04-15T05:24:32.776Z,58.11
2023-04-15T05:25:32.769Z,64.1
2023-04-15T05:26:32.789Z,64.59
2023-04-15T05:27:32.792Z,60.68
2023-04-15T05:28:32.948Z,64.1
2023-04-15T05:29:32.927Z,56.76
2023-04-15T05:30:32.764Z,62.88
2023-04-15T05:31:32.841Z,62.02
2023-04-15T05:32:32.857Z,62.88
2023-04-15T05:33:32.826Z,73.28
2023-04-15T05:34:32.756Z,69.73
2023-04-15T05:35:32.771Z,68.87
2023-04-15T05:36:32.799Z,67.16
2023-04-15T05:37:32.796Z,64.59
2023-04-15T05:38:32.799Z,67.16
2023-04-15T05:39:32.792Z,74.14
2023-04-15T05:40:32.788Z,81.97
2023-04-15T05:41:32.804Z,89.79
2023-04-15T05:42:32.782Z,94.56
2023-04-15T05:43:32.801Z,96.27
2023-04-15T05:44:32.814Z,99.7
2023-04-15T05:45:32.796Z,100.19
2023-04-15T05:46:32.778Z,97.13
2023-04-15T05:47:32.819Z,96.27
2023-04-15T05:48:32.831Z,96.27
2023-04-15T05:49:32.778Z,93.22
2023-04-15T05:50:32.813Z,97.99
2023-04-15T05:51:32.774Z,102.76
2023-04-15T05:52:32.814Z,105.33
2023-04-15T05:53:32.785Z,106.68
2023-04-15T05:54:32.764Z,109.24
2023-04-15T05:55:32.772Z,113.16
2023-04-15T05:56:32.803Z,129.68
2023-04-15T05:57:32.783Z,114.02
2023-04-15T05:58:32.797Z,122.34
2023-04-15T05:59:32.770Z,126.12
2023-04-15T06:00:32.795Z,135.3
2023-04-15T06:01:32.794Z,137.02
2023-04-15T06:02:32.855Z,141.78
2023-04-15T06:03:32.953Z,146.19
2023-04-15T06:04:32.955Z,138.36
2023-04-15T06:05:32.792Z,142.27
2023-04-15T06:06:32.793Z,143.5
2023-04-15T06:07:32.788Z,135.3
2023-04-15T06:08:32.788Z,121.85
2023-04-15T06:09:32.796Z,121.85
2023-04-15T06:10:32.771Z,117.44
2023-04-15T06:11:32.817Z,92.73
2023-04-15T06:12:32.787Z,90.65
2023-04-15T06:13:32.787Z,110.1
2023-04-15T06:14:32.797Z,107.53
2023-04-15T06:15:32.771Z,100.56
2023-04-15T06:16:32.832Z,97.13
2023-04-15T06:17:32.804Z,88.82
2023-04-15T06:18:32.836Z,103.13
2023-04-15T06:19:32.793Z,119.64
2023-04-15T06:20:32.854Z,112.3
2023-04-15T06:21:32.777Z,120.5
2023-04-15T06:22:32.771Z,124.9
2023-04-15T06:23:32.752Z,127.1
2023-04-15T06:24:32.766Z,111.44
2023-04-15T06:25:32.791Z,103.61
2023-04-15T06:26:32.805Z,101.9
2023-04-15T06:27:32.815Z,111.82
2023-04-15T06:28:32.800Z,135.67
2023-04-15T06:29:32.774Z,117.93
2023-04-15T06:30:32.791Z,124.05
2023-04-15T06:31:32.842Z,124.41
2023-04-15T06:32:32.854Z,107.53
2023-04-15T06:33:32.768Z,88.45
2023-04-15T06:34:32.778Z,68.02
2023-04-15T06:35:32.811Z,85.02
2023-04-15T06:36:32.776Z,84.04
2023-04-15T06:37:32.775Z,87.59
2023-04-15T06:38:32.776Z,103.61
2023-04-15T06:39:32.780Z,78.05
2023-04-15T06:40:32.803Z,71.56
2023-04-15T06:41:32.800Z,153.04
2023-04-15T06:42:32.810Z,168.21
2023-04-15T06:43:32.817Z,198.67
2023-04-15T06:44:33.862Z,187.29
2023-04-15T06:45:32.825Z,162.22
2023-04-15T06:46:32.821Z,127.96
2023-04-15T06:47:32.817Z,101.9
2023-04-15T06:48:32.772Z,104.96
2023-04-15T06:49:32.752Z,110.96
2023-04-15T06:50:32.759Z,122.7
2023-04-15T06:51:32.777Z,115.36
2023-04-15T06:52:32.836Z,139.22
2023-04-15T06:53:32.870Z,132.24
2023-04-15T06:54:32.818Z,109.24
2023-04-15T06:55:32.796Z,91.87
2023-04-15T06:56:32.756Z,95.42
2023-04-15T06:57:34.898Z,189.49
2023-04-15T06:58:32.780Z,179.1
2023-04-15T06:59:32.814Z,155.73
2023-04-15T07:00:32.787Z,139.58
2023-04-15T07:01:32.786Z,170.05
2023-04-15T07:02:32.843Z,195.12
2023-04-15T07:03:33.072Z,127.47
2023-04-15T07:04:32.851Z,97.13
2023-04-15T07:05:32.769Z,80.25
2023-04-15T07:06:32.792Z,86.24
2023-04-15T07:07:32.783Z,81.1
2023-04-15T07:08:32.769Z,128.33
2023-04-15T07:09:32.750Z,152.68
2023-04-15T07:10:32.798Z,137.02
2023-04-15T07:11:32.802Z,145.21
2023-04-15T07:12:32.770Z,106.19
2023-04-15T07:13:32.778Z,128.82
2023-04-15T07:14:32.776Z,160.51
2023-04-15T07:15:32.793Z,189.98
2023-04-15T07:16:32.795Z,197.81
2023-04-15T07:17:32.866Z,217.27
2023-04-15T07:18:32.789Z,262.41
2023-04-15T07:19:32.834Z,265.83
2023-04-15T07:20:32.763Z,277.58
2023-04-15T07:21:32.838Z,324.44
2023-04-15T07:22:32.768Z,334.83
2023-04-15T07:23:32.795Z,328.35
2023-04-15T07:24:32.850Z,281.86
2023-04-15T07:25:32.803Z,283.69
2023-04-15T07:26:32.752Z,279.78
2023-04-15T07:27:32.754Z,284.55
2023-04-15T07:28:32.765Z,269.38
2023-04-15T07:29:32.753Z,291.4
2023-04-15T07:30:32.749Z,317.95
2023-04-15T07:31:32.858Z,307.55
2023-04-15T07:32:32.745Z,328.71
2023-04-15T07:33:32.770Z,344.01
2023-04-15T07:34:32.881Z,338.26
2023-04-15T07:35:32.788Z,334.83
2023-04-15T07:36:32.801Z,376.55
2023-04-15T07:37:32.809Z,371.29
2023-04-15T07:38:32.776Z,370.43
2023-04-15T07:39:32.795Z,365.66
2023-04-15T07:40:32.848Z,360.03
2023-04-15T07:41:32.761Z,340.46
2023-04-15T07:42:32.803Z,336.54
2023-04-15T07:43:32.759Z,336.54
2023-04-15T07:44:32.766Z,333.98
2023-04-15T07:45:32.759Z,335.32
2023-04-15T07:46:32.894Z,338.26
2023-04-15T07:47:32.824Z,343.03
2023-04-15T07:48:33.701Z,351.71
2023-04-15T07:49:32.804Z,372.64
2023-04-15T07:50:32.789Z,389.88
2023-04-15T07:51:32.756Z,395.64
2023-04-15T07:52:32.759Z,404.2
2023-04-15T07:53:32.787Z,408.97
2023-04-15T07:54:32.780Z,413.37
2023-04-15T07:55:32.766Z,413.74
2023-04-15T07:56:32.795Z,414.23
2023-04-15T07:57:32.818Z,419.49
2023-04-15T07:58:32.811Z,425.49
2023-04-15T07:59:32.778Z,427.69
2023-04-15T08:00:32.855Z,433.8
2023-04-15T08:01:32.760Z,437.72
2023-04-15T08:02:32.842Z,442.86
2023-04-15T08:03:32.824Z,444.57
2023-04-15T08:04:33.025Z,447.26
2023-04-15T08:05:32.771Z,450.69
2023-04-15T08:06:32.829Z,454.6
2023-04-15T08:07:32.776Z,457.66
2023-04-15T08:08:32.793Z,458.52
2023-04-15T08:09:32.769Z,461.08
2023-04-15T08:10:32.767Z,461.94
2023-04-15T08:11:32.769Z,463.28
2023-04-15T08:12:32.806Z,466.35
2023-04-15T08:13:32.774Z,468.91
2023-04-15T08:14:32.836Z,473.2
2023-04-15T08:15:32.806Z,473.2
2023-04-15T08:16:32.954Z,475.4
2023-04-15T08:17:32.817Z,477.6
2023-04-15T08:18:32.770Z,481.88
2023-04-15T08:19:32.752Z,485.79
2023-04-15T08:20:32.782Z,488
2023-04-15T08:21:32.775Z,493.62
2023-04-15T08:22:32.795Z,497.91
2023-04-15T08:23:32.760Z,500.6
2023-04-15T08:24:32.735Z,504.88
2023-04-15T08:25:32.761Z,507.94
2023-04-15T08:26:32.750Z,512.22
2023-04-15T08:27:32.792Z,514.91
2023-04-15T08:28:32.778Z,520.05
2023-04-15T08:29:32.760Z,523.96
2023-04-15T08:30:32.748Z,526.16
2023-04-15T08:31:32.808Z,529.23
2023-04-15T08:32:32.783Z,528.37
2023-04-15T08:33:32.778Z,527.88
2023-04-15T08:34:32.737Z,527.88
2023-04-15T08:35:32.865Z,528.74
2023-04-15T08:36:32.828Z,529.59
2023-04-15T08:37:32.794Z,528.37
2023-04-15T08:38:32.753Z,530.94
2023-04-15T08:39:32.765Z,534.36
2023-04-15T08:40:32.784Z,540.48
2023-04-15T08:41:32.774Z,546.6
2023-04-15T08:42:32.747Z,553.08
2023-04-15T08:43:32.801Z,555.28
2023-04-15T08:44:32.762Z,558.22
2023-04-15T08:45:32.777Z,562.13
2023-04-15T08:46:32.775Z,564.82
2023-04-15T08:47:32.826Z,563.48
2023-04-15T08:48:32.784Z,562.62
2023-04-15T08:49:32.776Z,562.62
2023-04-15T08:50:32.769Z,560.06
2023-04-15T08:51:32.784Z,477.96
2023-04-15T08:52:32.746Z,553.94
2023-04-15T08:53:32.811Z,549.53
2023-04-15T08:54:32.785Z,546.11
2023-04-15T08:55:32.854Z,546.11
2023-04-15T08:56:33.016Z,548.67
2023-04-15T08:57:32.784Z,554.79
2023-04-15T08:58:32.743Z,564.82
2023-04-15T08:59:32.777Z,518.33
2023-04-15T09:00:32.746Z,557.36
2023-04-15T09:01:32.876Z,537.06
2023-04-15T09:02:32.908Z,593.45
2023-04-15T09:03:32.978Z,573.02
2023-04-15T09:04:32.758Z,499.25
2023-04-15T09:05:32.769Z,593.45
2023-04-15T09:06:32.764Z,592.47
2023-04-15T09:07:32.793Z,559.08
2023-04-15T09:08:32.789Z,592.96
2023-04-15T09:09:32.771Z,594.67
2023-04-15T09:10:32.798Z,594.31
2023-04-15T09:11:32.767Z,593.45
2023-04-15T09:12:32.802Z,523.6
2023-04-15T09:13:32.844Z,596.87
2023-04-15T09:14:32.746Z,415.94
2023-04-15T09:15:32.768Z,348.29
2023-04-15T09:16:32.804Z,403.83
2023-04-15T09:17:32.784Z,408.6
2023-04-15T09:18:32.764Z,454.11
2023-04-15T09:19:32.792Z,445.42
2023-04-15T09:20:32.780Z,475.4
2023-04-15T09:21:32.888Z,439.79
2023-04-15T09:22:32.774Z,567.4
2023-04-15T09:23:32.818Z,530.08
2023-04-15T09:24:32.768Z,559.57
2023-04-15T09:25:34.950Z,401.26
2023-04-15T09:26:32.783Z,480.66
2023-04-15T09:27:32.762Z,492.28
2023-04-15T09:28:32.751Z,468.06
2023-04-15T09:29:32.771Z,425.97
2023-04-15T09:30:32.822Z,375.2
2023-04-15T09:31:32.739Z,457.17
2023-04-15T09:32:32.817Z,517.97
2023-04-15T09:33:32.803Z,526.16
2023-04-15T09:34:32.755Z,511.37
2023-04-15T09:35:32.789Z,473.2
2023-04-15T09:36:32.740Z,416.8
2023-04-15T09:37:32.742Z,533.14
2023-04-15T09:38:32.753Z,481.52
2023-04-15T09:39:32.751Z,386.09
2023-04-15T09:40:32.740Z,336.54
2023-04-15T09:41:32.778Z,379.12
2023-04-15T09:42:32.751Z,389.52
2023-04-15T09:43:32.763Z,376.91
2023-04-15T09:44:32.751Z,511.37
2023-04-15T09:45:32.756Z,369.94
2023-04-15T09:46:32.797Z,512.22
2023-04-15T09:47:32.826Z,499.74
2023-04-15T09:48:32.775Z,332.27
2023-04-15T09:49:32.794Z,366.03
2023-04-15T09:50:32.735Z,396
2023-04-15T09:51:32.745Z,324.93
2023-04-15T09:52:32.744Z,350.49
2023-04-15T09:53:32.787Z,238.07
2023-04-15T09:54:32.763Z,374.71
2023-04-15T09:55:32.762Z,328.35
2023-04-15T09:56:32.734Z,490.57
2023-04-15T09:57:32.783Z,417.66
2023-04-15T09:58:32.760Z,462.43
2023-04-15T09:59:32.784Z,397.71
2023-04-15T10:00:32.852Z,494.11
2023-04-15T10:01:32.793Z,309.27
2023-04-15T10:02:32.833Z,474.91
2023-04-15T10:03:32.881Z,535.22
2023-04-15T10:04:32.761Z,500.6
2023-04-15T10:05:32.767Z,406.4
2023-04-15T10:06:32.760Z,304.86
2023-04-15T10:07:32.765Z,236.35
2023-04-15T10:08:32.777Z,182.15
2023-04-15T10:09:32.770Z,420.35
2023-04-15T10:10:32.780Z,309.27
2023-04-15T10:11:32.744Z,386.46
2023-04-15T10:12:32.796Z,283.69
2023-04-15T10:13:32.793Z,249.44
2023-04-15T10:14:32.776Z,306.2
2023-04-15T10:15:32.804Z,363.09
2023-04-15T10:16:32.807Z,305.84
2023-04-15T10:17:32.825Z,254.21
2023-04-15T10:18:32.767Z,251.52
2023-04-15T10:19:32.750Z,160.51
2023-04-15T10:20:32.752Z,300.58
2023-04-15T10:21:32.815Z,323.09
2023-04-15T10:22:32.767Z,209.93
2023-04-15T10:23:32.752Z,330.92
2023-04-15T10:24:32.697Z,258.49
2023-04-15T10:25:32.756Z,242.47
2023-04-15T10:26:32.762Z,212.98
2023-04-15T10:27:32.766Z,248.95
2023-04-15T10:28:32.737Z,261.07
2023-04-15T10:29:32.729Z,307.06
2023-04-15T10:30:32.779Z,154.75
2023-04-15T10:31:32.845Z,163.44
2023-04-15T10:32:32.759Z,127.1
2023-04-15T10:33:32.740Z,83.19
2023-04-15T10:34:32.770Z,134.44
2023-04-15T10:35:32.767Z,142.64
2023-04-15T10:36:32.755Z,259.84
2023-04-15T10:37:32.738Z,275.01
2023-04-15T10:38:32.780Z,222.04
2023-04-15T10:39:32.771Z,192.56
2023-04-15T10:40:32.741Z,154.75
2023-04-15T10:41:32.758Z,154.39
2023-04-15T10:42:32.771Z,354.4
2023-04-15T10:43:32.809Z,340.09
2023-04-15T10:44:32.752Z,428.18
2023-04-15T10:45:32.788Z,407.25
2023-04-15T10:46:32.778Z,362.12
2023-04-15T10:47:32.807Z,271.1
2023-04-15T10:48:32.737Z,326.64
2023-04-15T10:49:32.751Z,261.92
2023-04-15T10:50:32.759Z,325.29
2023-04-15T10:51:32.761Z,127.47
2023-04-15T10:52:32.716Z,162.58
2023-04-15T10:53:32.753Z,251.15
2023-04-15T10:54:32.835Z,377.77
2023-04-15T10:55:32.847Z,291.4
2023-04-15T10:56:32.754Z,216.9
2023-04-15T10:57:32.762Z,67.65
2023-04-15T10:58:32.780Z,71.07
2023-04-15T10:59:32.759Z,388.66
2023-04-15T11:00:32.804Z,340.46
2023-04-15T11:01:32.827Z,371.78
2023-04-15T11:02:32.944Z,115.73
2023-04-15T11:03:32.944Z,383.4
2023-04-15T11:04:32.804Z,562.99
2023-04-15T11:05:32.778Z,332.27
2023-04-15T11:06:32.739Z,227.3
2023-04-15T11:07:32.777Z,361.74
2023-04-15T11:08:32.732Z,344.86
2023-04-15T11:09:32.737Z,334.83
2023-04-15T11:10:32.741Z,311.47
2023-04-15T11:11:32.759Z,222.9
2023-04-15T11:12:32.732Z,346.95
2023-04-15T11:13:32.741Z,281.49
2023-04-15T11:14:32.735Z,369.57
2023-04-15T11:15:32.756Z,246.75
2023-04-15T11:16:32.770Z,367.01
2023-04-15T11:17:32.784Z,493.62
2023-04-15T11:18:32.896Z,217.27
2023-04-15T11:19:32.744Z,252.38
2023-04-15T11:20:32.748Z,340.46
2023-04-15T11:21:32.762Z,548.31
2023-04-15T11:22:32.780Z,544.76
2023-04-15T11:23:32.769Z,446.28
2023-04-15T11:24:32.737Z,555.28
2023-04-15T11:25:32.791Z,360.89
2023-04-15T11:26:32.753Z,447.26
2023-04-15T11:27:32.757Z,521.76
2023-04-15T11:28:32.718Z,493.62
2023-04-15T11:29:32.749Z,476.25
2023-04-15T11:30:32.733Z,487.51
2023-04-15T11:31:32.773Z,434.17
2023-04-15T11:32:32.774Z,415.57
2023-04-15T11:33:32.757Z,472.83
2023-04-15T11:34:34.568Z,533.5
2023-04-15T11:35:32.762Z,472.34
2023-04-15T11:36:32.787Z,548.67
2023-04-15T11:37:32.734Z,357.34
2023-04-15T11:38:32.831Z,533.14
2023-04-15T11:39:32.790Z,340.09
2023-04-15T11:40:32.711Z,412.88
2023-04-15T11:41:32.806Z,487.14
2023-04-15T11:42:46.421Z,438.08
2023-04-15T11:43:32.804Z,517.97
2023-04-15T11:44:32.740Z,393.43
2023-04-15T11:45:32.789Z,307.92
2023-04-15T11:46:32.747Z,287.98
2023-04-15T11:47:32.739Z,468.42
2023-04-15T11:48:32.726Z,469.77
2023-04-15T11:49:32.761Z,407.25
2023-04-15T11:50:32.759Z,448.97
2023-04-15T11:51:32.739Z,390.86
2023-04-15T11:52:32.733Z,317.95
2023-04-15T11:53:32.753Z,530.94
2023-04-15T11:54:32.755Z,494.48
2023-04-15T11:55:32.764Z,459.37
2023-04-15T11:56:32.735Z,326.15
2023-04-15T11:57:32.757Z,286.63
2023-04-15T11:58:32.815Z,235.49
2023-04-15T11:59:42.531Z,206.38
2023-04-15T12:00:32.738Z,445.42
2023-04-15T12:01:32.759Z,400.4
2023-04-15T12:02:32.867Z,264.98
2023-04-15T12:03:32.959Z,376.55
2023-04-15T12:04:32.976Z,337.03
2023-04-15T12:05:32.761Z,310.61
2023-04-15T12:06:32.737Z,271.46
2023-04-15T12:07:32.744Z,346.57
2023-04-15T12:08:32.727Z,345.72
2023-04-15T12:09:32.787Z,256.78
2023-04-15T12:10:32.773Z,212.98
2023-04-15T12:11:32.757Z,222.9
2023-04-15T12:12:32.752Z,442.86
2023-04-15T12:13:32.734Z,327.86
2023-04-15T12:14:32.790Z,276.24
2023-04-15T12:15:32.784Z,386.95
2023-04-15T12:16:34.133Z,411.17
2023-04-15T12:17:50.915Z,313.18
2023-04-15T12:18:32.773Z,294.1
2023-04-15T12:19:32.745Z,267.18
2023-04-15T12:20:32.741Z,431.6
2023-04-15T12:21:32.764Z,273.3
2023-04-15T12:22:32.743Z,308.78
2023-04-15T12:23:32.783Z,327.49
2023-04-15T12:24:32.684Z,301.93
2023-04-15T12:25:32.731Z,401.63
2023-04-15T12:26:32.744Z,407.25
2023-04-15T12:27:32.752Z,396.49
2023-04-15T12:28:32.725Z,432.94
2023-04-15T12:29:32.737Z,314.4
2023-04-15T12:30:32.724Z,417.28
2023-04-15T12:31:32.794Z,355.63
2023-04-15T12:32:32.766Z,331.4
2023-04-15T12:33:32.712Z,364.32
2023-04-15T12:34:32.739Z,429.89
2023-04-15T12:35:32.778Z,465
2023-04-15T12:36:32.737Z,443.35
2023-04-15T12:37:32.716Z,425.97
2023-04-15T12:38:32.742Z,481.52
2023-04-15T12:39:32.760Z,461.94
2023-04-15T12:40:32.728Z,429.4
2023-04-15T12:41:32.743Z,483.59
2023-04-15T12:42:32.752Z,485.79
2023-04-15T12:43:32.750Z,481.88
2023-04-15T12:44:32.717Z,423.77
2023-04-15T12:45:32.736Z,445.91
2023-04-15T12:46:32.878Z,438.08
2023-04-15T12:47:32.869Z,403.83
2023-04-15T12:48:32.735Z,469.28
2023-04-15T12:49:32.836Z,430.25
2023-04-15T12:50:32.737Z,423.77
2023-04-15T12:51:32.785Z,276.72
2023-04-15T12:52:32.746Z,363.09
2023-04-15T12:53:32.749Z,262.78
2023-04-15T12:54:32.734Z,437.72
2023-04-15T12:55:32.726Z,265.47
2023-04-15T12:56:32.728Z,324.93
2023-04-15T12:57:32.700Z,357.83
2023-04-15T12:58:32.725Z,340.46
2023-04-15T12:59:32.738Z,288.83
2023-04-15T13:00:32.740Z,405.54
2023-04-15T13:01:32.751Z,400.4
2023-04-15T13:02:32.958Z,402.12
2023-04-15T13:03:32.939Z,399.06
2023-04-15T13:04:32.864Z,396.49
2023-04-15T13:05:32.787Z,375.57
2023-04-15T13:06:32.747Z,395.64
2023-04-15T13:07:33.661Z,381.69
2023-04-15T13:08:38.571Z,367.86
2023-04-15T13:09:40.675Z,386.09
2023-04-15T13:10:44.701Z,329.69
2023-04-15T13:11:48.688Z,323.58
2023-04-15T13:12:52.666Z,266.32